Time;durP1;ratioP1;P1;durP2;ratioP2;P2;SDS_P1;SDS_P2;PMS_P1;PMS_P2;Temp;Humidity;BMP_temperature;BMP_pressure;BME280_temperature;BME280_humidity;BME280_pressure;Samples;Min_cycle;Max_cycle;Signal;HPM_P1;HPM_P2
2023/07/03 00:01:26;;;;;;;22.47;10.77;;;16.70;56.00;;;16.66;53.13;97582.25;4975798;28;20530;-76
2023/07/03 00:03:54;;;;;;;14.83;8.80;;;16.60;56.20;;;16.62;53.94;97574.88;4958317;28;20578;-76
2023/07/03 00:06:22;;;;;;;19.57;10.50;;;16.60;56.30;;;16.53;54.32;97577.28;4978077;28;20475;-76
2023/07/03 00:08:49;;;;;;;17.03;8.80;;;16.50;56.60;;;16.52;54.34;97581.09;4980555;28;20487;-77
2023/07/03 00:11:16;;;;;;;14.43;8.93;;;16.50;56.80;;;16.49;54.14;97579.72;4961811;28;20476;-76
2023/07/03 00:13:43;;;;;;;15.10;9.03;;;16.50;56.90;;;16.56;53.90;97583.03;4980088;28;20474;-77
2023/07/03 00:16:11;;;;;;;20.20;8.83;;;16.60;56.70;;;16.56;53.65;97582.22;4980299;28;20458;-77
2023/07/03 00:18:39;;;;;;;16.70;9.60;;;16.60;56.70;;;16.54;53.80;97587.09;4962629;28;20455;-76
2023/07/03 00:21:07;;;;;;;13.47;8.60;;;16.60;56.60;;;16.47;54.54;97581.88;4976100;28;20479;-78
2023/07/03 00:23:34;;;;;;;14.80;9.27;;;16.60;56.90;;;16.45;54.14;97580.50;4976628;28;20474;-75
2023/07/03 00:26:01;;;;;;;17.00;9.50;;;16.60;56.80;;;16.55;54.61;97578.69;4982180;28;20460;-77
2023/07/03 00:28:28;;;;;;;14.80;9.07;;;16.60;56.80;;;16.28;53.80;97536.00;4961007;28;20483;-76
2023/07/03 00:30:56;;;;;;;14.70;8.97;;;16.50;56.80;;;16.52;54.03;97570.19;4983608;28;20481;-75
2023/07/03 00:33:23;;;;;;;15.00;9.93;;;16.50;56.80;;;16.51;54.35;97579.47;4992762;28;20483;-76
2023/07/03 00:35:52;;;;;;;17.07;8.67;;;16.50;57.20;;;16.46;54.39;97560.38;4989759;28;20467;-77
2023/07/03 00:38:19;;;;;;;14.47;10.30;;;16.60;57.20;;;16.59;54.11;97573.50;4989450;28;21338;-77
2023/07/03 00:40:46;;;;;;;13.80;8.83;;;16.60;56.90;;;16.62;53.80;97575.72;4988488;28;20459;-75
2023/07/03 00:43:14;;;;;;;15.57;8.83;;;16.60;57.00;;;16.63;54.02;97573.78;4988815;28;20470;-77
2023/07/03 00:45:41;;;;;;;14.43;9.70;;;16.60;57.10;;;16.77;53.80;97565.94;4991703;28;20983;-77
2023/07/03 00:48:08;;;;;;;17.50;9.43;;;16.80;57.00;;;16.77;53.37;97572.22;4990178;28;20454;-77
2023/07/03 00:50:36;;;;;;;15.17;9.43;;;16.80;56.70;;;16.85;53.55;97568.16;4989216;28;20462;-77
2023/07/03 00:53:06;;;;;;;14.83;9.33;;;16.90;56.90;;;16.94;52.55;97566.56;4979678;28;20479;-77
2023/07/03 00:55:33;;;;;;;15.70;9.30;;;16.90;56.40;;;16.90;52.68;97568.16;4985273;28;20462;-76
2023/07/03 00:58:01;;;;;;;14.23;9.60;;;16.90;56.40;;;16.84;52.90;97569.25;4972926;28;20937;-78
2023/07/03 01:00:36;;;;;;;15.27;9.17;;;17.00;56.50;;;16.90;52.69;97570.88;4973378;28;20461;-80
2023/07/03 01:03:12;;;;;;;15.17;8.40;;;17.00;56.50;;;17.06;52.60;97574.53;4989243;28;20447;-77
2023/07/03 01:05:47;;;;;;;22.20;10.03;;;17.00;56.50;;;16.86;52.56;97558.88;4991168;28;20487;-77
2023/07/03 01:08:16;;;;;;;14.23;8.70;;;17.00;56.40;;;16.96;52.81;97569.81;4983062;28;20954;-77
2023/07/03 01:10:45;;;;;;;17.07;10.17;;;17.00;56.50;;;16.94;53.04;97563.81;4979471;28;20521;-76
2023/07/03 01:13:17;;;;;;;15.83;8.70;;;16.90;56.40;;;16.92;53.26;97568.72;4960232;28;20629;-77
2023/07/03 01:15:45;;;;;;;13.50;7.70;;;16.90;56.50;;;16.91;53.11;97571.72;4977458;28;20462;-77
2023/07/03 01:18:14;;;;;;;16.83;8.63;;;16.90;56.70;;;16.84;53.07;97571.97;4978029;28;20519;-78
2023/07/03 01:20:46;;;;;;;14.60;9.03;;;16.90;56.60;;;16.77;52.86;97568.69;4983683;28;20502;-76
2023/07/03 01:23:24;;;;;;;14.67;8.13;;;16.80;56.50;;;16.65;54.04;97572.44;4985607;28;20948;-78
2023/07/03 01:25:57;;;;;;;12.43;7.33;;;16.70;56.90;;;16.76;53.24;97569.78;4984190;28;20595;-78
2023/07/03 01:28:27;;;;;;;15.67;10.03;;;16.70;56.70;;;16.71;52.83;97568.63;4984063;28;20893;-76
2023/07/03 01:30:56;;;;;;;16.10;8.50;;;16.80;56.60;;;16.82;52.68;97574.94;4983452;28;20530;-75
2023/07/03 01:33:30;;;;;;;14.30;8.87;;;16.80;56.60;;;16.77;52.78;97585.03;4981303;28;20936;-77
2023/07/03 01:36:00;;;;;;;15.47;9.17;;;16.70;56.60;;;16.60;53.63;97591.50;4982723;28;20477;-77
2023/07/03 01:38:29;;;;;;;12.03;8.73;;;16.70;56.70;;;16.80;52.63;97587.22;4986693;28;20464;-76
2023/07/03 01:40:59;;;;;;;16.00;9.23;;;16.70;56.50;;;16.81;52.94;97580.69;4983086;28;20867;-78
2023/07/03 01:43:28;;;;;;;15.87;9.80;;;16.70;56.80;;;16.69;53.16;97570.00;4983028;28;20470;-78
2023/07/03 01:45:56;;;;;;;18.80;8.60;;;16.70;56.90;;;16.59;53.46;97576.22;4984765;28;20463;-79
2023/07/03 01:48:24;;;;;;;13.10;8.60;;;16.70;57.00;;;16.61;52.84;97565.06;4967047;28;20459;-76
2023/07/03 01:50:51;;;;;;;12.47;8.60;;;16.60;57.00;;;16.57;53.51;97579.22;4986663;28;20471;-78
2023/07/03 01:53:26;;;;;;;14.20;8.70;;;16.60;56.80;;;16.46;54.08;97582.97;4979953;28;20455;-79
2023/07/03 01:56:03;;;;;;;17.50;9.50;;;16.50;57.20;;;16.32;54.01;97570.91;4981694;28;20461;-77
2023/07/03 01:58:36;;;;;;;16.07;9.47;;;16.40;57.20;;;16.19;54.31;97550.41;4986559;28;20466;-77
2023/07/03 02:01:09;;;;;;;18.00;8.27;;;16.40;57.30;;;15.84;54.78;97537.03;4968578;28;20451;-77
2023/07/03 02:03:40;;;;;;;15.60;9.37;;;16.30;57.60;;;16.18;55.29;97567.84;4982955;28;20459;-78
2023/07/03 02:06:16;;;;;;;14.60;9.07;;;16.20;57.70;;;16.14;54.74;97570.25;4982854;28;20463;-77
2023/07/03 02:08:44;;;;;;;17.83;8.87;;;16.20;57.50;;;16.10;54.69;97578.13;4987023;28;20465;-76
2023/07/03 02:11:19;;;;;;;15.00;8.03;;;16.20;57.60;;;16.00;55.68;97570.72;4961225;28;20473;-77
2023/07/03 02:13:46;;;;;;;13.57;8.23;;;16.10;57.90;;;15.90;55.40;97558.94;4985016;28;20811;-77
2023/07/03 02:16:15;;;;;;;14.63;9.00;;;16.00;57.90;;;15.94;55.89;97571.78;4982585;28;21098;-78
2023/07/03 02:18:42;;;;;;;12.83;8.57;;;16.00;58.20;;;15.75;55.74;97546.81;4981239;28;20465;-76
2023/07/03 02:21:10;;;;;;;17.70;9.33;;;16.00;58.30;;;15.91;55.15;97568.75;4967705;28;20983;-78
2023/07/03 02:23:37;;;;;;;14.30;8.60;;;16.00;58.00;;;15.49;55.48;97504.94;4983838;28;20459;-78
2023/07/03 02:26:04;;;;;;;16.53;9.03;;;16.00;58.30;;;15.84;55.89;97572.47;4977325;28;20467;-78
2023/07/03 02:28:34;;;;;;;13.70;9.40;;;16.00;58.40;;;15.84;56.22;97574.38;4975711;28;20478;-76
2023/07/03 02:31:01;;;;;;;14.20;8.37;;;15.90;58.40;;;15.84;55.62;97583.34;4977216;28;20493;-77
2023/07/03 02:33:29;;;;;;;13.70;8.40;;;15.90;58.40;;;15.80;55.66;97576.78;4983359;28;20459;-77
2023/07/03 02:35:56;;;;;;;17.93;8.67;;;15.90;58.40;;;15.81;55.74;97583.88;4969984;28;20480;-78
2023/07/03 02:38:23;;;;;;;12.50;8.57;;;15.80;58.40;;;15.85;56.05;97590.47;4980291;28;20465;-76
2023/07/03 02:40:51;;;;;;;15.70;9.00;;;15.90;58.70;;;15.77;56.13;97585.50;4975876;28;20525;-77
2023/07/03 02:43:18;;;;;;;19.63;9.80;;;15.80;58.70;;;15.70;55.90;97560.38;4976750;28;20439;-78
2023/07/03 02:45:47;;;;;;;12.07;8.50;;;15.90;58.90;;;15.84;56.40;97577.91;4963119;28;20462;-77
2023/07/03 02:48:15;;;;;;;12.93;8.07;;;15.90;59.10;;;15.91;55.74;97582.34;4978271;28;20534;-77
2023/07/03 02:50:42;;;;;;;13.43;8.90;;;16.00;59.00;;;16.00;56.10;97586.25;4984925;28;20586;-78
2023/07/03 02:53:10;;;;;;;13.63;7.67;;;16.00;58.90;;;16.03;55.22;97580.28;4970194;28;20459;-78
2023/07/03 02:55:37;;;;;;;12.37;8.50;;;16.00;58.80;;;16.05;55.64;97578.09;4989198;28;20485;-77
2023/07/03 02:58:04;;;;;;;12.67;8.57;;;16.00;59.00;;;16.20;55.02;97573.84;4982851;28;20516;-78
2023/07/03 03:00:32;;;;;;;14.00;8.23;;;16.20;58.70;;;16.24;54.70;97577.69;4986354;28;20455;-78
2023/07/03 03:03:01;;;;;;;10.67;7.43;;;16.20;58.40;;;16.27;54.74;97579.88;4975154;28;20467;-78
2023/07/03 03:05:28;;;;;;;19.27;8.87;;;16.20;58.30;;;16.22;55.06;97585.28;4979455;28;20462;-79
2023/07/03 03:07:55;;;;;;;15.60;9.60;;;16.30;58.60;;;16.26;54.10;97578.22;4974543;28;20448;-78
2023/07/03 03:10:23;;;;;;;13.50;8.60;;;16.40;58.20;;;16.33;54.49;97581.56;4977053;28;20613;-79
2023/07/03 03:12:50;;;;;;;15.03;9.77;;;16.40;58.30;;;16.34;54.15;97577.75;4976268;28;20486;-77
2023/07/03 03:15:19;;;;;;;14.07;8.70;;;16.50;58.00;;;16.47;54.67;97583.81;4975020;28;20450;-77
2023/07/03 03:17:47;;;;;;;15.80;8.37;;;16.50;58.30;;;16.52;53.54;97567.47;4975735;28;20978;-75
2023/07/03 03:20:15;;;;;;;16.00;8.00;;;16.60;57.90;;;16.51;53.78;97579.47;4975705;28;20460;-78
2023/07/03 03:22:42;;;;;;;11.70;8.70;;;16.60;57.90;;;16.47;54.66;97562.81;4978886;28;20455;-76
2023/07/03 03:25:10;;;;;;;13.13;8.23;;;16.60;58.10;;;16.65;53.28;97564.25;4981358;28;20467;-77
2023/07/03 03:27:37;;;;;;;14.17;8.93;;;16.70;57.70;;;16.76;53.05;97569.78;4957246;28;22625;-77
2023/07/03 03:30:06;;;;;;;14.27;7.77;;;16.70;57.60;;;16.69;53.20;97570.00;4976435;28;20482;-77
2023/07/03 03:32:33;;;;;;;12.67;7.90;;;16.70;57.30;;;16.81;52.69;97569.78;4971919;28;20876;-78
2023/07/03 03:35:01;;;;;;;15.17;8.47;;;16.80;57.30;;;16.79;53.04;97574.69;4959724;28;20562;-78
2023/07/03 03:37:30;;;;;;;16.23;7.77;;;16.80;57.50;;;16.76;53.03;97570.56;4973776;28;20479;-76
2023/07/03 03:39:57;;;;;;;14.57;7.50;;;16.80;57.40;;;16.47;52.77;97521.91;4975211;28;20464;-78
2023/07/03 03:42:24;;;;;;;10.17;7.13;;;16.80;57.30;;;16.91;52.41;97575.28;4960788;28;20454;-78
2023/07/03 03:44:51;;;;;;;15.50;8.83;;;16.90;57.30;;;16.87;52.80;97579.59;4978220;28;20458;-77
2023/07/03 03:47:20;;;;;;;12.73;7.43;;;16.90;57.40;;;16.92;52.52;97559.72;4960558;28;20465;-77
2023/07/03 03:49:47;;;;;;;14.10;8.03;;;17.00;57.30;;;16.82;53.00;97563.22;4964626;28;20857;-79
2023/07/03 03:52:15;;;;;;;13.47;8.10;;;17.00;57.30;;;17.01;52.56;97565.50;4977565;28;20454;-78
2023/07/03 03:54:43;;;;;;;15.00;8.40;;;17.00;57.20;;;16.99;53.29;97568.50;4961053;28;20452;-77
2023/07/03 03:57:12;;;;;;;13.77;8.17;;;17.10;57.90;;;16.95;52.66;97573.66;4976615;28;20451;-77
2023/07/03 03:59:40;;;;;;;12.90;8.10;;;17.10;57.30;;;16.94;52.86;97566.56;4977577;28;20472;-79
2023/07/03 04:02:07;;;;;;;11.83;7.20;;;17.10;57.20;;;17.20;52.18;97574.00;4977533;28;20459;-77
2023/07/03 04:04:34;;;;;;;15.93;8.67;;;17.20;57.10;;;16.85;52.15;97519.03;4980009;28;20465;-78
2023/07/03 04:07:03;;;;;;;13.00;7.73;;;17.20;57.10;;;17.17;52.25;97575.38;4983289;28;20557;-79
2023/07/03 04:09:30;;;;;;;12.53;8.17;;;17.20;57.00;;;17.15;52.25;97571.28;4993241;28;20468;-77
2023/07/03 04:11:59;;;;;;;14.33;8.43;;;17.30;57.10;;;17.28;51.58;97566.13;4993865;28;20452;-77
2023/07/03 04:14:26;;;;;;;12.00;7.67;;;17.40;56.70;;;17.38;51.39;97569.97;4985851;28;20464;-77
2023/07/03 04:16:57;;;;;;;14.23;8.20;;;17.40;56.60;;;17.28;51.63;97562.56;4981018;28;20518;-78
2023/07/03 04:19:24;;;;;;;12.07;8.00;;;17.40;56.60;;;17.34;51.80;97569.69;4979357;28;20936;-78
2023/07/03 04:21:51;;;;;;;14.43;7.77;;;17.40;56.90;;;17.30;51.71;97568.59;4959513;28;20456;-80
2023/07/03 04:24:18;;;;;;;12.47;7.10;;;17.40;56.70;;;17.49;51.03;97559.88;4979974;28;20467;-79
2023/07/03 04:26:45;;;;;;;12.90;7.70;;;17.50;56.60;;;17.49;51.74;97566.13;4960681;28;20961;-77
2023/07/03 04:29:14;;;;;;;12.13;6.83;;;17.50;56.70;;;17.49;51.21;97566.13;4979493;28;20539;-79
2023/07/03 04:31:41;;;;;;;10.93;7.40;;;17.60;56.60;;;17.46;51.29;97555.75;4978415;28;20861;-78
2023/07/03 04:34:08;;;;;;;9.97;6.93;;;17.60;56.60;;;17.51;51.57;97563.13;4994929;28;20474;-80
2023/07/03 04:36:36;;;;;;;13.90;7.23;;;17.60;56.80;;;17.31;51.76;97562.03;4990871;28;20524;-78
2023/07/03 04:39:03;;;;;;;11.50;7.10;;;17.60;56.60;;;17.67;51.83;97577.63;4988889;28;20448;-80
2023/07/03 04:41:32;;;;;;;13.17;7.80;;;17.60;57.70;;;17.99;53.37;97576.53;4975020;28;20487;-79
2023/07/03 04:44:00;;;;;;;12.23;6.97;;;17.90;58.30;;;18.04;50.97;97573.81;4988613;28;20461;-76
2023/07/03 04:46:29;;;;;;;14.87;7.60;;;18.10;57.20;;;18.27;52.25;97571.56;4992220;28;20451;-78
2023/07/03 04:49:00;;;;;;;16.70;8.00;;;18.30;57.80;;;17.85;50.41;97570.78;4970981;28;20452;-79
2023/07/03 04:51:30;;;;;;;13.17;7.10;;;18.20;56.20;;;18.52;49.83;97569.88;4975095;28;20472;-80
2023/07/03 04:53:58;;;;;;;15.80;8.07;;;18.40;57.20;;;18.46;51.12;97571.81;4991697;28;20459;-77
2023/07/03 04:56:26;;;;;;;12.60;7.87;;;18.40;57.40;;;18.30;51.05;97568.31;4993180;28;20570;-78
2023/07/03 04:58:53;;;;;;;13.27;7.70;;;18.30;57.30;;;18.33;51.00;97573.22;4975777;28;20996;-81
2023/07/03 05:01:22;;;;;;;12.80;7.70;;;18.50;56.90;;;18.50;50.55;97528.31;4975123;28;20456;-81
2023/07/03 05:03:50;;;;;;;13.47;8.00;;;18.60;57.40;;;18.92;48.25;97573.56;4995120;28;20454;-76
2023/07/03 05:06:18;;;;;;;10.47;7.37;;;18.80;56.10;;;18.70;48.62;97576.66;4982422;28;20494;-76
2023/07/03 05:08:46;;;;;;;12.43;7.73;;;18.70;55.60;;;18.30;49.26;97524.56;4987156;28;20507;-79
2023/07/03 05:11:13;;;;;;;11.20;6.90;;;18.60;56.00;;;18.79;48.71;97574.97;4977533;28;21116;-79
2023/07/03 05:13:41;;;;;;;10.97;7.67;;;18.70;55.90;;;18.54;48.90;97571.25;4983527;28;20459;-76
2023/07/03 05:16:08;;;;;;;12.53;8.70;;;18.60;55.50;;;18.69;49.11;97575.84;4984464;28;20941;-77
2023/07/03 05:18:35;;;;;;;15.97;7.20;;;18.70;55.90;;;18.43;48.50;97525.06;4983001;28;20467;-75
2023/07/03 05:21:06;;;;;;;13.07;7.63;;;18.70;55.50;;;18.62;48.74;97580.78;4983523;28;20459;-82
2023/07/03 05:23:33;;;;;;;9.67;6.80;;;18.70;55.40;;;18.33;49.10;97573.22;4998985;28;20493;-77
2023/07/03 05:26:00;;;;;;;9.40;6.60;;;18.60;55.30;;;18.61;48.84;97590.09;4991621;28;20477;-76
2023/07/03 05:28:28;;;;;;;13.23;7.50;;;18.60;55.30;;;18.78;48.60;97588.94;4988574;28;20518;-79
2023/07/03 05:30:55;;;;;;;18.63;7.83;;;18.70;55.50;;;18.57;48.52;97538.97;4979316;28;20499;-79
2023/07/03 05:33:23;;;;;;;12.07;7.17;;;18.80;55.50;;;18.61;48.97;97587.38;4981063;28;20468;-80
2023/07/03 05:35:51;;;;;;;10.30;6.80;;;18.70;55.30;;;18.62;49.47;97602.69;4983839;28;20476;-79
2023/07/03 05:38:20;;;;;;;12.00;7.50;;;18.70;55.70;;;19.01;48.21;97589.41;4982002;28;20488;-79
2023/07/03 05:40:49;;;;;;;10.70;7.13;;;18.90;55.50;;;19.10;48.07;97587.75;4976198;28;20461;-80
2023/07/03 05:43:17;;;;;;;13.13;6.60;;;19.00;55.30;;;19.06;47.99;97590.22;4981749;28;20463;-79
2023/07/03 05:45:45;;;;;;;11.23;7.47;;;19.10;55.40;;;18.76;48.18;97548.19;4974751;28;20514;-77
2023/07/03 05:48:12;;;;;;;9.80;7.40;;;19.10;55.20;;;19.25;48.09;97597.78;4974446;28;20456;-80
2023/07/03 05:50:39;;;;;;;11.87;7.00;;;19.20;55.30;;;18.89;48.67;97596.03;4981776;28;20493;-79
2023/07/03 05:53:06;;;;;;;10.53;7.40;;;19.10;55.20;;;19.36;47.85;97587.59;4962764;28;20468;-78
2023/07/03 05:55:35;;;;;;;18.70;7.90;;;19.30;55.40;;;19.44;47.89;97589.72;4984567;28;20459;-80
2023/07/03 05:58:03;;;;;;;9.17;6.63;;;19.40;55.20;;;19.27;47.84;97583.81;4981297;28;21192;-79
2023/07/03 06:00:31;;;;;;;10.40;7.00;;;19.50;55.20;;;19.64;47.21;97582.47;4980995;28;20525;-80
2023/07/03 06:02:59;;;;;;;10.63;7.00;;;19.60;55.00;;;19.90;46.82;97598.69;4974738;28;20467;-80
2023/07/03 06:05:27;;;;;;;12.20;6.80;;;19.80;54.90;;;19.78;47.17;97604.56;4979658;28;20470;-79
2023/07/03 06:07:54;;;;;;;11.70;7.70;;;19.80;54.80;;;19.88;46.68;97604.50;4977595;28;20469;-78
2023/07/03 06:10:23;;;;;;;12.07;7.50;;;19.90;54.80;;;19.49;46.94;97588.88;4977829;28;20571;-78
2023/07/03 06:12:52;;;;;;;11.10;8.10;;;19.80;54.70;;;19.78;47.09;97608.09;4975628;28;20453;-78
2023/07/03 06:15:19;;;;;;;12.40;7.67;;;19.80;54.70;;;19.78;46.99;97616.31;4980820;28;20459;-80
2023/07/03 06:17:46;;;;;;;14.90;6.27;;;19.90;54.80;;;19.94;46.98;97613.50;4957539;28;21717;-80
2023/07/03 06:20:13;;;;;;;12.03;8.20;;;19.90;54.80;;;19.91;47.04;97619.53;4977250;28;22671;-79
2023/07/03 06:22:42;;;;;;;11.20;7.30;;;20.00;54.80;;;20.19;46.16;97597.94;4973537;28;20816;-80
2023/07/03 06:25:10;;;;;;;15.03;7.73;;;20.20;54.60;;;20.17;46.08;97619.34;4973374;28;20471;-80
2023/07/03 06:27:38;;;;;;;11.93;7.20;;;20.20;54.40;;;20.21;46.07;97617.66;4979863;28;20459;-80
2023/07/03 06:30:08;;;;;;;15.60;7.93;;;20.30;54.40;;;20.16;46.26;97606.75;4981664;28;20816;-79
2023/07/03 06:32:38;;;;;;;13.13;8.05;;;20.30;54.30;;;20.05;46.52;97620.53;4976846;28;20472;-79
2023/07/03 06:35:06;;;;;;;10.90;7.20;;;20.20;54.20;;;19.97;46.53;97607.47;4974535;28;20220;-78
2023/07/03 06:37:33;;;;;;;12.20;7.13;;;20.20;54.30;;;20.01;46.50;97618.66;4979653;28;20461;-79
2023/07/03 06:40:01;;;;;;;11.43;7.07;;;20.20;54.30;;;20.39;46.07;97619.66;4958504;28;20937;-80
2023/07/03 06:42:29;;;;;;;10.23;6.63;;;20.50;54.40;;;20.39;46.19;97616.91;4980555;28;20462;-77
2023/07/03 06:44:56;;;;;;;14.37;7.40;;;20.50;54.30;;;20.75;45.27;97618.47;4983445;28;20520;-77
2023/07/03 06:47:25;;;;;;;12.57;7.00;;;20.70;54.10;;;21.07;44.71;97616.22;4978443;28;20467;-78
2023/07/03 06:49:52;;;;;;;10.60;6.50;;;21.10;54.00;;;21.06;44.57;97611.84;4980874;28;20459;-77
2023/07/03 06:52:20;;;;;;;10.93;7.90;;;21.20;53.70;;;21.19;44.50;97624.84;4964858;28;20492;-79
2023/07/03 06:54:48;;;;;;;12.93;6.80;;;21.30;53.50;;;21.46;43.78;97623.38;4979063;28;20452;-78
2023/07/03 06:57:15;;;;;;;9.07;6.63;;;21.50;53.40;;;21.79;43.04;97626.22;4973432;28;20481;-85
2023/07/03 06:59:42;;;;;;;12.30;6.93;;;21.70;53.30;;;21.91;42.66;97619.44;4975293;28;20584;-75
2023/07/03 07:02:10;;;;;;;10.80;7.40;;;21.90;53.30;;;21.91;42.42;97633.16;4977346;28;20452;-75
2023/07/03 07:04:39;;;;;;;11.87;7.63;;;22.00;52.50;;;21.30;43.64;97632.94;4963446;28;20463;-75
2023/07/03 07:07:06;;;;;;;13.33;7.90;;;21.60;52.70;;;21.50;43.80;97618.09;4962850;28;20459;-75
2023/07/03 07:09:35;;;;;;;11.83;6.90;;;21.60;53.10;;;21.52;43.62;97627.69;4984809;28;20457;-75
2023/07/03 07:12:02;;;;;;;10.20;7.57;;;21.60;52.90;;;21.71;43.09;97628.84;4976916;28;20495;-78
2023/07/03 07:14:32;;;;;;;8.07;6.73;;;21.70;52.90;;;21.76;43.31;97632.31;4981322;28;20469;-75
2023/07/03 07:17:00;;;;;;;10.80;6.60;;;21.80;52.90;;;22.22;42.33;97629.94;4972381;28;20545;-75
2023/07/03 07:19:27;;;;;;;10.87;7.57;;;22.10;52.90;;;22.49;42.01;97626.44;4978782;28;20457;-74
2023/07/03 07:21:56;;;;;;;12.30;7.43;;;22.40;52.60;;;22.40;41.98;97624.69;4973203;28;20475;-75
2023/07/03 07:24:27;;;;;;;9.80;6.87;;;22.50;52.40;;;22.21;41.86;97620.03;4979884;28;21004;-75
2023/07/03 07:26:55;;;;;;;12.17;6.43;;;22.40;52.10;;;22.18;42.04;97631.63;4956978;28;20465;-74
2023/07/03 07:29:24;;;;;;;7.20;5.77;;;22.30;52.30;;;22.16;42.25;97611.88;4980927;28;20473;-77
2023/07/03 07:31:55;;;;;;;10.40;6.33;;;22.30;52.20;;;22.31;41.89;97621.81;4968690;28;21289;-78
2023/07/03 07:34:22;;;;;;;10.17;7.30;;;22.30;52.10;;;22.78;41.26;97621.78;4977919;28;20837;-76
2023/07/03 07:36:50;;;;;;;10.80;7.30;;;22.70;52.30;;;22.80;40.99;97625.03;4982657;28;20542;-75
2023/07/03 07:39:21;;;;;;;10.03;6.90;;;22.80;51.90;;;22.47;41.99;97617.69;4978051;28;20466;-75
2023/07/03 07:41:51;;;;;;;9.90;6.30;;;22.60;51.90;;;22.53;42.00;97621.16;4976536;28;20928;-76
2023/07/03 07:44:19;;;;;;;10.40;6.27;;;22.70;52.00;;;22.83;40.90;97623.63;4976741;28;20444;-75
2023/07/03 07:46:47;;;;;;;11.10;7.03;;;22.80;51.90;;;22.26;42.11;97619.97;4980443;28;20487;-75
2023/07/03 07:49:15;;;;;;;9.13;6.00;;;22.50;51.90;;;22.16;41.96;97585.19;4991223;28;20468;-76
2023/07/03 07:51:42;;;;;;;9.50;7.37;;;22.50;52.00;;;22.38;42.09;97615.91;4979741;28;20480;-75
2023/07/03 07:54:09;;;;;;;11.20;6.90;;;22.50;52.00;;;22.98;40.63;97609.53;4979983;28;20447;-77
2023/07/03 07:56:39;;;;;;;9.80;6.10;;;22.80;51.70;;;22.13;42.12;97557.47;4972867;28;21002;-77
2023/07/03 07:59:06;;;;;;;8.07;6.47;;;22.50;51.80;;;22.17;42.36;97608.00;4979598;28;20449;-76
2023/07/03 08:01:33;;;;;;;8.93;5.97;;;22.30;52.00;;;22.22;41.95;97614.25;4963925;28;20876;-75
2023/07/03 08:04:01;;;;;;;10.07;6.10;;;22.40;51.90;;;22.78;41.03;97616.28;4978482;28;21224;-74
2023/07/03 08:06:29;;;;;;;9.93;6.83;;;22.70;51.70;;;23.21;40.34;97569.09;4974687;28;20492;-73
2023/07/03 08:08:57;;;;;;;12.47;6.20;;;23.20;51.90;;;23.38;39.45;97613.69;4976614;28;20452;-74
2023/07/03 08:11:26;;;;;;;12.20;7.03;;;23.40;50.90;;;23.76;39.50;97599.56;4961308;28;20485;-76
2023/07/03 08:13:55;;;;;;;11.40;6.63;;;23.60;51.00;;;24.01;38.58;97602.84;4963156;28;20460;-74
2023/07/03 08:16:23;;;;;;;7.93;5.93;;;23.90;50.70;;;24.28;38.09;97607.41;4975554;28;20719;-75
2023/07/03 08:18:50;;;;;;;12.27;6.60;;;24.10;50.70;;;24.06;37.92;97608.25;4961240;28;20468;-76
2023/07/03 08:21:18;;;;;;;6.67;5.43;;;24.10;49.80;;;24.17;38.29;97603.28;4975444;28;21183;-75
2023/07/03 08:23:45;;;;;;;11.67;5.83;;;24.10;50.10;;;24.48;37.53;97596.97;4972748;28;20459;-74
2023/07/03 08:26:19;;;;;;;8.33;5.33;;;24.40;50.10;;;24.80;36.72;97597.78;4977198;28;20466;-76
2023/07/03 08:28:46;;;;;;;18.33;6.13;;;24.60;49.50;;;24.78;35.83;97611.09;4965209;28;20461;-76
2023/07/03 08:31:15;;;;;;;6.20;5.20;;;24.80;48.90;;;24.86;35.26;97613.06;4977376;28;20465;-75
2023/07/03 08:33:43;;;;;;;8.90;5.27;;;24.90;48.30;;;24.43;36.09;97610.91;4989931;28;20444;-75
2023/07/03 08:36:10;;;;;;;7.37;4.87;;;24.60;48.40;;;24.39;36.33;97610.72;4982909;28;20478;-77
2023/07/03 08:38:37;;;;;;;8.27;5.53;;;24.50;48.40;;;23.01;38.40;97613.63;4983552;28;21266;-76
2023/07/03 08:41:05;;;;;;;9.60;5.57;;;23.40;48.70;;;22.72;39.46;97617.50;4984670;28;20474;-76
2023/07/03 08:43:36;;;;;;;9.63;5.37;;;22.90;49.40;;;22.19;40.52;97619.53;4984387;28;20469;-74
2023/07/03 08:46:06;;;;;;;9.10;5.40;;;22.50;49.60;;;22.31;40.68;97608.84;4981072;28;20544;-80
2023/07/03 08:48:36;;;;;;;9.07;5.93;;;22.30;50.00;;;22.98;39.69;97605.97;4961029;28;20552;-74
2023/07/03 08:51:08;;;;;;;9.63;5.37;;;22.70;50.30;;;23.52;38.35;97608.13;4985095;28;20646;-79
2023/07/03 08:53:40;;;;;;;9.43;5.40;;;23.20;49.90;;;23.48;38.80;97622.56;4968434;28;20460;-73
2023/07/03 08:56:13;;;;;;;10.57;6.40;;;23.40;49.80;;;23.58;38.75;97615.16;4985900;28;20792;-75
2023/07/03 08:58:41;;;;;;;8.07;5.90;;;23.50;49.90;;;23.03;39.40;97617.69;4985381;28;20567;-75
2023/07/03 09:01:18;;;;;;;8.97;5.40;;;23.10;49.60;;;23.43;39.05;97617.16;4983739;28;20495;-77
2023/07/03 09:04:04;;;;;;;9.50;5.30;;;23.30;49.90;;;23.16;38.80;97616.06;4985458;28;20553;-73
2023/07/03 09:06:43;;;;;;;10.17;5.17;;;23.20;49.40;;;23.48;38.62;97619.78;4983332;28;20451;-76
2023/07/03 09:09:16;;;;;;;7.23;5.40;;;23.30;49.50;;;22.99;38.43;97574.56;4979487;28;20513;-74
2023/07/03 09:11:51;;;;;;;9.70;5.40;;;23.30;49.30;;;22.91;39.64;97626.47;4981928;28;20989;-75
2023/07/03 09:14:24;;;;;;;10.20;5.70;;;23.00;49.50;;;23.76;38.40;97616.94;4975736;28;20476;-75
2023/07/03 09:16:52;;;;;;;12.75;6.20;;;23.40;50.00;;;23.54;37.60;97581.91;4966978;28;20829;-76
2023/07/03 09:19:26;;;;;;;11.03;6.80;;;23.60;49.10;;;24.07;37.56;97620.13;4978791;28;20590;-75
2023/07/03 09:21:57;;;;;;;8.20;5.30;;;23.80;49.10;;;24.60;36.92;97627.56;4969839;28;21304;-78
2023/07/03 09:24:28;;;;;;;7.43;5.07;;;24.30;49.20;;;24.03;37.13;97625.44;4978892;28;20457;-75
2023/07/03 09:27:06;;;;;;;7.40;5.30;;;24.20;48.80;;;23.65;37.96;97618.31;4968940;28;20558;-75
2023/07/03 09:29:36;;;;;;;11.50;6.30;;;23.70;48.90;;;23.13;38.71;97627.69;4977395;28;20469;-79
2023/07/03 09:32:05;;;;;;;8.27;5.67;;;23.30;48.90;;;23.05;38.72;97640.25;4973858;28;20476;-75
2023/07/03 09:35:05;;;;;;;6.53;4.73;;;23.10;48.90;;;23.24;37.96;97639.31;4958397;28;20460;-74
2023/07/03 09:37:33;;;;;;;8.47;5.40;;;23.20;48.70;;;23.03;38.37;97633.41;4954972;28;20461;-75
2023/07/03 09:40:00;;;;;;;10.50;5.10;;;23.00;48.70;;;22.88;38.98;97653.81;4975087;28;20464;-76
2023/07/03 09:42:32;;;;;;;8.53;4.70;;;22.90;48.80;;;22.92;38.42;97641.88;4964193;28;21951;-76
2023/07/03 09:44:59;;;;;;;11.10;5.60;;;22.90;48.60;;;23.52;37.63;97638.47;4983602;28;20472;-75
2023/07/03 09:47:29;;;;;;;8.93;5.57;;;23.30;48.70;;;23.31;36.64;97634.22;4976343;28;20464;-74
2023/07/03 09:50:05;;;;;;;6.17;4.80;;;23.30;47.50;;;23.60;35.99;97652.31;4981332;28;21000;-74
2023/07/03 09:52:33;;;;;;;13.40;5.40;;;23.50;47.70;;;23.24;37.24;97660.53;4982070;28;20852;-74
2023/07/03 09:55:03;;;;;;;7.57;4.80;;;23.30;47.80;;;22.71;38.08;97640.66;4981738;28;21004;-75
2023/07/03 09:57:30;;;;;;;7.47;5.20;;;22.90;48.10;;;22.75;38.17;97660.94;4983369;28;20468;-75
2023/07/03 10:00:11;;;;;;;10.20;6.37;;;22.80;48.20;;;23.09;37.71;97665.22;4968011;28;20535;-76
2023/07/03 10:02:39;;;;;;;7.63;4.40;;;22.90;48.10;;;22.76;38.23;97654.31;4958753;28;20460;-74
2023/07/03 10:05:08;;;;;;;5.60;4.43;;;22.80;48.30;;;22.46;39.26;97653.72;4985089;28;20446;-76
2023/07/03 10:07:43;;;;;;;7.33;4.63;;;22.50;48.60;;;22.50;37.66;97649.28;4955141;28;20519;-74
2023/07/03 10:10:14;;;;;;;6.00;4.77;;;22.50;47.40;;;23.03;36.62;97644.44;4976199;28;20466;-78
2023/07/03 10:12:52;;;;;;;6.33;4.37;;;22.80;47.30;;;23.23;36.70;97653.38;4959080;28;21027;-77
2023/07/03 10:15:26;;;;;;;6.30;4.00;;;23.00;47.60;;;22.49;37.49;97675.16;4981266;28;20477;-74
2023/07/03 10:17:59;;;;;;;7.50;4.60;;;22.70;47.20;;;22.49;37.68;97676.00;4980872;28;20495;-76
2023/07/03 10:20:35;;;;;;;8.27;4.83;;;22.50;47.50;;;22.92;37.38;97666.66;4974364;28;20530;-76